Weather at St-Tite Airport [CLOSED]

Public forecast

Using degrees Celsius for public forecast. Weather courtesy of forecast.io.

Closest aviation weather report (METAR) to St-Tite Airport

Closest report is Trois-Rivières Airport, 22.1 nm (41.0 km) S.

2024/07/22 02:00 (retrieved 23 minutes ago)

CYRQ 220200Z AUTO 24002KT 9SM CLR 17/11 A3002 RMK SLP170 DENSITY ALT 400FT

Closest aviation forecast (TAF) to St-Tite Airport

Forecast is more than 6 hours old.

Closest forecast is Roberval Airport, 109.1 nm (202.0 km) N.

2024/07/21 20:00 (retrieved 6 hours ago)

TAF CYRJ 211940Z 2120/2202 31010G20KT P6SM BKN040 RMK NXT FCST BY 221200Z